createdAt,value
2019-02-06T00:02:06.429Z,101221.67
2019-02-06T00:04:34.463Z,101220.75
2019-02-06T00:07:02.510Z,101222.88
2019-02-06T00:09:30.584Z,101222.96
2019-02-06T00:12:00.663Z,101224.80
2019-02-06T00:14:28.705Z,101222.22
2019-02-06T00:16:57.052Z,101219.72
2019-02-06T00:19:25.436Z,101214.62
2019-02-06T00:21:53.526Z,101221.45
2019-02-06T00:24:21.691Z,101225.26
2019-02-06T00:26:50.863Z,101224.80
2019-02-06T00:29:18.954Z,101222.96
2019-02-06T00:31:47.008Z,101226.75
2019-02-06T00:34:15.358Z,101232.38
2019-02-06T00:36:43.740Z,101233.66
2019-02-06T00:39:11.775Z,101231.62
2019-02-06T00:41:39.852Z,101233.84
2019-02-06T00:44:08.298Z,101229.19
2019-02-06T00:46:36.628Z,101228.45
2019-02-06T00:49:04.765Z,101230.83
2019-02-06T00:51:33.106Z,101234.30
2019-02-06T00:54:01.153Z,101244.25
2019-02-06T00:56:29.207Z,101240.55
2019-02-06T00:58:57.221Z,101236.31
2019-02-06T01:01:25.292Z,101234.24
2019-02-06T01:03:53.351Z,101236.91
2019-02-06T01:06:21.840Z,101239.48
2019-02-06T01:08:50.288Z,101244.20
2019-02-06T01:11:18.687Z,101239.95
2019-02-06T01:13:47.038Z,101234.04
2019-02-06T01:16:15.272Z,101231.92
2019-02-06T01:18:43.345Z,101229.02
2019-02-06T01:21:11.403Z,101229.48
2019-02-06T01:23:40.307Z,101230.31
2019-02-06T01:26:08.379Z,101223.95
2019-02-06T01:28:36.504Z,101224.48
2019-02-06T01:31:10.703Z,101233.98
2019-02-06T01:33:40.241Z,101230.25
2019-02-06T01:36:08.322Z,101228.59
2019-02-06T01:38:36.371Z,101226.55
2019-02-06T01:41:04.864Z,101228.30
2019-02-06T01:43:32.932Z,101225.80
2019-02-06T01:46:00.995Z,101224.11
2019-02-06T01:48:29.035Z,101227.61
2019-02-06T01:50:57.117Z,101224.36
2019-02-06T01:53:25.188Z,101220.26
2019-02-06T01:55:53.271Z,101222.55
2019-02-06T01:58:21.408Z,101222.55
2019-02-06T02:00:49.498Z,101219.59
2019-02-06T02:03:17.562Z,101224.81
2019-02-06T02:05:45.697Z,101224.52
2019-02-06T02:08:13.735Z,101222.40
2019-02-06T02:10:42.158Z,101216.48
2019-02-06T02:13:10.351Z,101218.23
2019-02-06T02:15:40.236Z,101221.70
2019-02-06T02:18:08.573Z,101222.25
2019-02-06T02:20:38.064Z,101220.20
2019-02-06T02:23:06.334Z,101218.59
2019-02-06T02:25:34.821Z,101219.14
2019-02-06T02:28:03.120Z,101223.09
2019-02-06T02:30:53.047Z,101221.05
2019-02-06T02:33:21.150Z,101220.27
2019-02-06T02:35:49.434Z,101221.64
2019-02-06T02:38:17.608Z,101223.94
2019-02-06T02:40:46.404Z,101219.66
2019-02-06T02:43:14.477Z,101217.33
2019-02-06T02:45:43.743Z,101217.87
2019-02-06T02:48:11.826Z,101214.05
2019-02-06T02:50:41.026Z,101207.69
2019-02-06T02:53:09.090Z,101212.47
2019-02-06T02:55:37.367Z,101208.73
2019-02-06T02:58:07.555Z,101211.77
2019-02-06T03:00:55.268Z,101210.56
2019-02-06T03:03:36.443Z,101212.39
2019-02-06T03:06:04.702Z,101214.65
2019-02-06T03:08:32.769Z,101216.02
2019-02-06T03:11:01.174Z,101214.81
2019-02-06T03:13:29.227Z,101217.84
2019-02-06T03:15:57.474Z,101216.18
2019-02-06T03:18:25.597Z,101216.64
2019-02-06T03:20:53.654Z,101213.69
2019-02-06T03:23:22.221Z,101211.94
2019-02-06T03:25:50.299Z,101209.81
2019-02-06T03:28:18.688Z,101206.84
2019-02-06T03:30:47.729Z,101201.01
2019-02-06T03:33:15.917Z,101202.38
2019-02-06T03:35:43.982Z,101196.44
2019-02-06T03:38:12.448Z,101192.73
2019-02-06T03:40:41.106Z,101197.19
2019-02-06T03:43:09.500Z,101199.47
2019-02-06T03:45:37.891Z,101202.05
2019-02-06T03:48:05.967Z,101196.52
2019-02-06T03:50:34.170Z,101195.69
2019-02-06T03:53:02.232Z,101197.44
2019-02-06T03:55:30.284Z,101196.28
2019-02-06T03:57:58.747Z,101190.29
2019-02-06T04:00:26.894Z,101191.95
2019-02-06T04:02:54.955Z,101189.08
2019-02-06T04:05:23.349Z,101194.23
2019-02-06T04:07:51.413Z,101194.69
2019-02-06T04:10:19.649Z,101198.48
2019-02-06T04:12:48.025Z,101195.91
2019-02-06T04:15:17.060Z,101200.68
2019-02-06T04:17:47.690Z,101202.42
2019-02-06T04:20:17.388Z,101198.64
2019-02-06T04:22:46.557Z,101193.53
2019-02-06T04:25:15.482Z,101196.56
2019-02-06T04:27:43.773Z,101195.81
2019-02-06T04:30:13.360Z,101192.41
2019-02-06T04:32:41.435Z,101198.09
2019-02-06T04:35:11.051Z,101195.06
2019-02-06T04:37:39.106Z,101194.73
2019-02-06T04:40:17.831Z,101194.44
2019-02-06T04:42:46.314Z,101199.59
2019-02-06T04:45:17.059Z,101195.80
2019-02-06T04:47:45.405Z,101192.90
2019-02-06T04:50:15.832Z,101193.81
2019-02-06T04:52:45.221Z,101194.27
2019-02-06T04:55:14.260Z,101194.72
2019-02-06T04:57:42.544Z,101191.77
2019-02-06T05:00:21.046Z,101193.97
2019-02-06T05:02:49.186Z,101193.06
2019-02-06T05:05:17.227Z,101192.68
2019-02-06T05:07:45.318Z,101193.59
2019-02-06T05:10:13.423Z,101193.22
2019-02-06T05:12:41.491Z,101194.50
2019-02-06T05:15:10.235Z,101190.31
2019-02-06T05:17:38.353Z,101188.73
2019-02-06T05:20:17.692Z,101185.90
2019-02-06T05:22:45.778Z,101186.81
2019-02-06T05:25:14.102Z,101188.25
2019-02-06T05:27:42.492Z,101191.20
2019-02-06T05:30:11.970Z,101194.28
2019-02-06T05:32:43.012Z,101195.57
2019-02-06T05:35:10.376Z,101189.22
2019-02-06T05:37:38.447Z,101199.89
2019-02-06T05:40:07.194Z,101201.71
2019-02-06T05:42:35.521Z,101199.06
2019-02-06T05:45:06.518Z,101199.59
2019-02-06T05:47:35.572Z,101200.95
2019-02-06T05:50:04.709Z,101207.02
2019-02-06T05:52:32.734Z,101205.32
2019-02-06T05:55:04.253Z,101213.00
2019-02-06T05:57:30.739Z,101212.21
2019-02-06T05:59:58.790Z,101213.20
2019-02-06T06:02:26.911Z,101211.08
2019-02-06T06:04:54.971Z,101208.20
2019-02-06T06:07:23.031Z,101210.82
2019-02-06T06:09:51.095Z,101219.45
2019-02-06T06:12:19.420Z,101218.62
2019-02-06T06:14:47.729Z,101217.87
2019-02-06T06:17:15.779Z,101222.19
2019-02-06T06:19:44.118Z,101220.06
2019-02-06T06:22:13.087Z,101214.50
2019-02-06T06:24:41.161Z,101219.73
2019-02-06T06:27:09.211Z,101208.22
2019-02-06T06:29:37.274Z,101210.50
2019-02-06T06:32:05.417Z,101211.78
2019-02-06T06:34:33.474Z,101215.69
2019-02-06T06:37:01.959Z,101214.85
2019-02-06T06:39:30.152Z,101217.05
2019-02-06T06:41:58.402Z,101211.52
2019-02-06T06:44:26.469Z,101211.59
2019-02-06T06:46:54.517Z,101211.59
2019-02-06T06:49:22.719Z,101207.41
2019-02-06T06:51:51.102Z,101204.00
2019-02-06T06:54:19.174Z,101207.93
2019-02-06T06:56:47.291Z,101213.16
2019-02-06T06:59:15.370Z,101211.94
2019-02-06T07:01:43.549Z,101215.34
2019-02-06T07:04:12.915Z,101218.83
2019-02-06T07:06:40.960Z,101223.19
2019-02-06T07:09:09.510Z,101226.59
2019-02-06T07:11:37.548Z,101227.01
2019-02-06T07:14:06.013Z,101224.44
2019-02-06T07:16:34.169Z,101226.55
2019-02-06T07:19:02.259Z,101231.62
2019-02-06T07:21:30.375Z,101230.19
2019-02-06T07:23:58.582Z,101234.31
2019-02-06T07:26:27.036Z,101232.00
2019-02-06T07:28:55.095Z,101228.73
2019-02-06T07:31:23.283Z,101225.52
2019-02-06T07:33:51.754Z,101230.92
2019-02-06T07:36:19.839Z,101227.73
2019-02-06T07:38:48.319Z,101223.67
2019-02-06T07:41:16.386Z,101227.77
2019-02-06T07:43:44.859Z,101226.58
2019-02-06T07:46:14.163Z,101230.78
2019-02-06T07:48:42.274Z,101224.53
2019-02-06T07:51:10.573Z,101226.00
2019-02-06T07:53:38.925Z,101230.81
2019-02-06T07:56:06.993Z,101229.61
2019-02-06T07:58:35.047Z,101224.16
2019-02-06T08:01:03.734Z,101221.61
2019-02-06T08:03:31.890Z,101220.09
2019-02-06T08:06:00.343Z,101216.97
2019-02-06T08:08:36.273Z,101211.92
2019-02-06T08:10:58.762Z,101217.50
2019-02-06T08:13:26.821Z,101214.39
2019-02-06T08:15:54.847Z,101216.05
2019-02-06T08:18:22.901Z,101215.41
2019-02-06T08:20:50.938Z,101218.08
2019-02-06T08:23:19.023Z,101214.45
2019-02-06T08:25:47.052Z,101218.37
2019-02-06T08:28:15.142Z,101214.01
2019-02-06T08:30:43.583Z,101214.16
2019-02-06T08:33:12.309Z,101208.95
2019-02-06T08:35:40.341Z,101203.86
2019-02-06T08:38:08.494Z,101197.86
2019-02-06T08:40:36.541Z,101190.13
2019-02-06T08:43:04.824Z,101188.60
2019-02-06T08:45:32.875Z,101192.25
2019-02-06T08:48:01.158Z,101191.47
2019-02-06T08:50:29.638Z,101190.44
2019-02-06T08:52:58.119Z,101195.66
2019-02-06T08:55:28.051Z,101191.28
2019-02-06T08:57:56.111Z,101181.12
2019-02-06T09:00:36.822Z,101183.35
2019-02-06T09:03:07.359Z,101186.44
2019-02-06T09:05:36.748Z,101181.70
2019-02-06T09:08:05.416Z,101181.57
2019-02-06T09:10:33.486Z,101180.80
2019-02-06T09:13:02.136Z,101187.44
2019-02-06T09:15:31.197Z,101187.32
2019-02-06T09:17:59.322Z,101183.59
2019-02-06T09:20:29.639Z,101182.77
2019-02-06T09:22:58.403Z,101182.87
2019-02-06T09:25:28.261Z,101183.50
2019-02-06T09:27:56.416Z,101174.43
2019-02-06T09:30:26.555Z,101169.05
2019-02-06T09:32:55.240Z,101172.60
2019-02-06T09:35:23.622Z,101176.25
2019-02-06T09:37:52.080Z,101173.92
2019-02-06T09:40:23.370Z,101167.76
2019-02-06T09:42:51.434Z,101163.53
2019-02-06T09:45:19.602Z,101160.23
2019-02-06T09:47:49.148Z,101157.09
2019-02-06T09:50:27.026Z,101156.30
2019-02-06T09:52:55.255Z,101155.66
2019-02-06T09:55:23.327Z,101156.63
2019-02-06T09:57:51.655Z,101146.56
2019-02-06T10:00:23.281Z,101141.91
2019-02-06T10:02:51.457Z,101135.27
2019-02-06T10:05:20.050Z,101142.83
2019-02-06T10:07:48.082Z,101138.46
2019-02-06T10:10:18.513Z,101128.03
2019-02-06T10:12:46.780Z,101136.34
2019-02-06T10:15:19.041Z,101127.85
2019-02-06T10:17:47.250Z,101133.70
2019-02-06T10:20:16.783Z,101130.15
2019-02-06T10:22:44.844Z,101123.73
2019-02-06T10:25:13.333Z,101128.83
2019-02-06T10:27:41.376Z,101135.13
2019-02-06T10:30:20.230Z,101129.88
2019-02-06T10:32:48.277Z,101134.20
2019-02-06T10:35:16.826Z,101124.24
2019-02-06T10:37:44.859Z,101128.00
2019-02-06T10:40:14.867Z,101122.20
2019-02-06T10:42:42.913Z,101122.80
2019-02-06T10:45:11.359Z,101113.85
2019-02-06T10:47:39.372Z,101115.13
2019-02-06T10:50:09.611Z,101102.20
2019-02-06T10:52:37.628Z,101098.44
2019-02-06T10:55:06.537Z,101085.38
2019-02-06T10:57:34.595Z,101079.53
2019-02-06T11:00:08.336Z,101076.89
2019-02-06T11:02:36.721Z,101074.31
2019-02-06T11:05:05.201Z,101064.49
2019-02-06T11:07:33.593Z,101064.84
2019-02-06T11:10:03.864Z,101059.38
2019-02-06T11:12:31.996Z,101055.39
2019-02-06T11:15:00.901Z,101046.19
2019-02-06T11:17:28.978Z,101044.92
2019-02-06T11:19:57.437Z,101040.08
2019-02-06T11:22:26.296Z,101033.58
2019-02-06T11:24:54.443Z,101026.33
2019-02-06T11:27:22.737Z,101023.63
2019-02-06T11:29:51.440Z,101014.70
2019-02-06T11:32:19.526Z,101008.77
2019-02-06T11:34:47.651Z,101008.66
2019-02-06T11:37:15.819Z,101008.70
2019-02-06T11:39:57.292Z,100997.31
2019-02-06T11:42:15.904Z,100987.16
2019-02-06T11:44:43.982Z,100982.72
2019-02-06T11:47:12.004Z,100981.12
2019-02-06T11:49:42.274Z,100972.52
2019-02-06T11:52:10.275Z,100966.66
2019-02-06T11:54:38.742Z,100971.02
2019-02-06T11:57:07.027Z,100960.69
2019-02-06T11:59:36.422Z,100959.53
2019-02-06T12:02:04.785Z,100956.06
2019-02-06T12:04:32.850Z,100949.28
2019-02-06T12:07:00.906Z,100943.53
2019-02-06T12:09:29.084Z,100941.80
2019-02-06T12:11:57.520Z,100933.22
2019-02-06T12:14:25.773Z,100927.27
2019-02-06T12:16:54.378Z,100920.00
2019-02-06T12:19:22.517Z,100913.84
2019-02-06T12:21:52.693Z,100912.80
2019-02-06T12:24:20.817Z,100909.23
2019-02-06T12:26:49.187Z,100897.13
2019-02-06T12:29:17.448Z,100896.30
2019-02-06T12:31:45.520Z,100891.66
2019-02-06T12:34:15.695Z,100892.47
2019-02-06T12:36:43.741Z,100881.75
2019-02-06T12:39:11.791Z,100883.17
2019-02-06T12:41:39.934Z,100874.09
2019-02-06T12:44:07.965Z,100877.52
2019-02-06T12:46:36.093Z,100878.05
2019-02-06T12:49:04.826Z,100876.72
2019-02-06T12:51:33.000Z,100871.89
2019-02-06T12:54:01.154Z,100865.81
2019-02-06T12:56:29.216Z,100865.88
2019-02-06T12:58:57.388Z,100869.47
2019-02-06T13:01:25.593Z,100866.91
2019-02-06T13:03:53.760Z,100869.21
2019-02-06T13:06:22.217Z,100858.61
2019-02-06T13:08:50.240Z,100850.40
2019-02-06T13:11:18.371Z,100851.63
2019-02-06T13:13:46.438Z,100844.11
2019-02-06T13:16:16.001Z,100840.27
2019-02-06T13:18:44.111Z,100838.94
2019-02-06T13:21:12.175Z,100834.13
2019-02-06T13:23:40.715Z,100836.27
2019-02-06T13:26:08.883Z,100829.08
2019-02-06T13:28:36.912Z,100831.82
2019-02-06T13:31:04.938Z,100830.00
2019-02-06T13:33:33.050Z,100827.28
2019-02-06T13:36:01.769Z,100825.56
2019-02-06T13:38:30.014Z,100821.37
2019-02-06T13:41:12.543Z,100816.05
2019-02-06T13:43:56.580Z,100811.08
2019-02-06T13:46:26.905Z,100808.78
2019-02-06T13:48:55.240Z,100806.39
2019-02-06T13:51:23.278Z,100796.84
2019-02-06T13:53:51.639Z,100794.70
2019-02-06T13:56:19.664Z,100793.23
2019-02-06T13:58:47.759Z,100795.01
2019-02-06T14:01:25.438Z,100785.36
2019-02-06T14:03:45.836Z,100776.28
2019-02-06T14:06:15.802Z,100774.62
2019-02-06T14:08:43.948Z,100766.00
2019-02-06T14:11:12.504Z,100760.66
2019-02-06T14:13:40.505Z,100754.51
2019-02-06T14:16:09.232Z,100749.23
2019-02-06T14:18:37.372Z,100742.02
2019-02-06T14:21:05.781Z,100741.50
2019-02-06T14:24:02.334Z,100735.51
2019-02-06T14:26:53.891Z,100739.84
2019-02-06T14:30:00.956Z,100733.39
2019-02-06T14:33:57.525Z,100744.62
2019-02-06T14:37:19.363Z,100744.83
2019-02-06T14:41:08.671Z,100737.23
2019-02-06T14:44:33.672Z,100737.66
2019-02-06T14:48:12.342Z,100742.52
2019-02-06T14:51:50.953Z,100737.84
2019-02-06T14:54:51.957Z,100733.05
2019-02-06T14:58:29.380Z,100730.53
2019-02-06T15:02:16.027Z,100724.20
2019-02-06T15:05:42.754Z,100721.30
2019-02-06T15:08:53.199Z,100723.92
2019-02-06T15:12:48.893Z,100717.13
2019-02-06T15:16:30.460Z,100707.20
2019-02-06T15:19:23.488Z,100698.97
2019-02-06T15:22:42.456Z,100695.54
2019-02-06T15:25:53.560Z,100689.66
2019-02-06T15:29:06.016Z,100685.89
2019-02-06T15:32:34.159Z,100691.73
2019-02-06T15:35:43.589Z,100697.66
2019-02-06T15:39:00.805Z,100693.94
2019-02-06T15:42:08.203Z,100692.52
2019-02-06T15:45:18.681Z,100696.89
2019-02-06T15:48:34.903Z,100693.95
2019-02-06T15:52:06.825Z,100696.38
2019-02-06T15:55:24.689Z,100695.14
2019-02-06T15:58:40.988Z,100698.08
2019-02-06T16:02:08.052Z,100699.97
2019-02-06T16:05:42.857Z,100694.34
2019-02-06T16:08:51.959Z,100686.11
2019-02-06T16:12:05.396Z,100683.13
2019-02-06T16:15:01.587Z,100672.69
2019-02-06T16:18:17.884Z,100672.26
2019-02-06T16:21:53.278Z,100676.47
2019-02-06T16:24:53.590Z,100667.84
2019-02-06T16:28:16.526Z,100660.71
2019-02-06T16:31:34.772Z,100663.12
2019-02-06T16:34:58.994Z,100668.68
2019-02-06T16:38:16.404Z,100662.23
2019-02-06T16:41:53.361Z,100655.21
2019-02-06T16:45:43.532Z,100660.06
2019-02-06T16:48:53.676Z,100664.71
2019-02-06T16:52:23.358Z,100659.30
2019-02-06T16:55:39.866Z,100659.91
2019-02-06T16:59:46.991Z,100670.69
2019-02-06T17:03:32.137Z,100672.28
2019-02-06T17:06:50.877Z,100665.59
2019-02-06T17:09:51.462Z,100675.73
2019-02-06T17:13:02.408Z,100673.56
2019-02-06T17:16:22.093Z,100664.89
2019-02-06T17:20:12.674Z,100665.70
2019-02-06T17:23:38.624Z,100670.58
2019-02-06T17:27:16.420Z,100671.44
2019-02-06T17:30:37.584Z,100664.61
2019-02-06T17:34:14.612Z,100667.06
2019-02-06T17:37:49.615Z,100664.23
2019-02-06T17:41:24.661Z,100666.78
2019-02-06T17:44:47.708Z,100665.11
2019-02-06T17:48:14.596Z,100661.75
2019-02-06T17:51:51.253Z,100661.80
2019-02-06T17:54:49.075Z,100662.58
2019-02-06T17:57:17.380Z,100668.70
2019-02-06T17:59:45.583Z,100655.46
2019-02-06T18:02:13.859Z,100642.38
2019-02-06T18:04:44.907Z,100643.63
2019-02-06T18:07:14.145Z,100637.70
2019-02-06T18:09:42.329Z,100644.55
2019-02-06T18:12:10.719Z,100635.74
2019-02-06T18:14:38.856Z,100636.79
2019-02-06T18:17:06.914Z,100639.31
2019-02-06T18:19:40.034Z,100639.95
2019-02-06T18:22:09.125Z,100645.66
2019-02-06T18:24:37.667Z,100645.46
2019-02-06T18:27:06.755Z,100647.39
2019-02-06T18:29:34.991Z,100644.94
2019-02-06T18:32:04.262Z,100645.44
2019-02-06T18:34:32.338Z,100642.84
2019-02-06T18:37:00.788Z,100640.87
2019-02-06T18:39:28.987Z,100643.83
2019-02-06T18:41:57.241Z,100652.11
2019-02-06T18:44:25.938Z,100657.80
2019-02-06T18:46:56.828Z,100659.23
2019-02-06T18:49:25.403Z,100659.97
2019-02-06T18:51:55.026Z,100654.90
2019-02-06T18:54:24.280Z,100653.73
2019-02-06T18:56:52.452Z,100648.66
2019-02-06T18:59:20.675Z,100636.49
2019-02-06T19:01:49.511Z,100634.88
2019-02-06T19:04:20.147Z,100635.33
2019-02-06T19:06:48.985Z,100630.45
2019-02-06T19:09:17.759Z,100630.08
2019-02-06T19:11:46.469Z,100631.13
2019-02-06T19:14:14.896Z,100631.23
2019-02-06T19:16:44.654Z,100636.76
2019-02-06T19:19:12.982Z,100629.08
2019-02-06T19:21:41.767Z,100623.87
2019-02-06T19:24:09.877Z,100624.32
2019-02-06T19:26:38.415Z,100619.58
2019-02-06T19:29:07.356Z,100618.15
2019-02-06T19:31:35.974Z,100609.64
2019-02-06T19:34:05.238Z,100614.91
2019-02-06T19:36:33.404Z,100608.05
2019-02-06T19:39:01.461Z,100609.67
2019-02-06T19:41:31.293Z,100603.16
2019-02-06T19:43:59.603Z,100604.78
2019-02-06T19:46:27.889Z,100602.42
2019-02-06T19:48:55.962Z,100599.59
2019-02-06T19:51:25.092Z,100599.80
2019-02-06T19:53:53.292Z,100599.44
2019-02-06T19:56:22.111Z,100595.32
2019-02-06T19:58:52.133Z,100591.91
2019-02-06T20:01:20.364Z,100582.57
2019-02-06T20:03:48.587Z,100584.09
2019-02-06T20:06:28.231Z,100577.94
2019-02-06T20:09:00.132Z,100574.84
2019-02-06T20:11:29.399Z,100574.37
2019-02-06T20:13:58.090Z,100575.16
2019-02-06T20:16:26.532Z,100578.77
2019-02-06T20:18:54.599Z,100577.23
2019-02-06T20:21:23.077Z,100578.38
2019-02-06T20:23:51.752Z,100576.95
2019-02-06T20:26:20.385Z,100571.27
2019-02-06T20:28:48.666Z,100572.44
2019-02-06T20:31:17.289Z,100576.98
2019-02-06T20:33:45.629Z,100580.63
2019-02-06T20:36:13.698Z,100570.11
2019-02-06T20:38:41.764Z,100572.07
2019-02-06T20:41:10.019Z,100571.00
2019-02-06T20:43:38.257Z,100573.00
2019-02-06T20:46:06.326Z,100573.30
2019-02-06T20:48:34.667Z,100573.89
2019-02-06T20:51:04.254Z,100576.08
2019-02-06T20:53:33.359Z,100587.24
2019-02-06T20:56:03.355Z,100585.78
2019-02-06T20:58:31.589Z,100585.15
2019-02-06T21:00:59.755Z,100589.97
2019-02-06T21:03:29.360Z,100591.38
2019-02-06T21:05:57.419Z,100585.95
2019-02-06T21:08:25.554Z,100582.78
2019-02-06T21:10:55.216Z,100578.33
2019-02-06T21:13:32.714Z,100579.16
2019-02-06T21:15:53.886Z,100576.56
2019-02-06T21:18:23.633Z,100568.67
2019-02-06T21:20:52.128Z,100568.97
2019-02-06T21:23:20.388Z,100572.72
2019-02-06T21:25:48.409Z,100566.09
2019-02-06T21:28:19.401Z,100564.91
2019-02-06T21:30:49.292Z,100556.40
2019-02-06T21:33:17.740Z,100550.52
2019-02-06T21:35:46.171Z,100547.68
2019-02-06T21:38:14.457Z,100552.33
2019-02-06T21:40:42.939Z,100552.08
2019-02-06T21:43:11.185Z,100548.75
2019-02-06T21:45:39.578Z,100542.75
2019-02-06T21:48:08.010Z,100535.46
2019-02-06T21:50:38.949Z,100526.99
2019-02-06T21:53:07.189Z,100521.47
2019-02-06T21:55:36.696Z,100516.38
2019-02-06T21:58:05.488Z,100509.20
2019-02-06T22:00:37.914Z,100510.70
2019-02-06T22:03:06.112Z,100507.13
2019-02-06T22:05:34.436Z,100506.96
2019-02-06T22:08:03.119Z,100502.73
2019-02-06T22:10:32.378Z,100499.07
2019-02-06T22:13:00.783Z,100500.19
2019-02-06T22:15:30.705Z,100501.34
2019-02-06T22:18:00.739Z,100503.66
2019-02-06T22:20:29.432Z,100498.13
2019-02-06T22:22:58.094Z,100496.37
2019-02-06T22:25:26.373Z,100497.30
2019-02-06T22:27:54.551Z,100484.95
2019-02-06T22:30:25.063Z,100474.45
2019-02-06T22:32:53.141Z,100470.58
2019-02-06T22:35:22.047Z,100476.67
2019-02-06T22:37:53.299Z,100468.57
2019-02-06T22:40:22.877Z,100469.14
2019-02-06T22:42:51.012Z,100467.11
2019-02-06T22:45:21.954Z,100464.88
2019-02-06T22:47:50.915Z,100462.88
2019-02-06T22:50:23.213Z,100462.88
2019-02-06T22:52:51.590Z,100468.97
2019-02-06T22:55:19.975Z,100468.62
2019-02-06T22:57:48.176Z,100462.81
2019-02-06T23:01:06.421Z,100464.57
2019-02-06T23:03:39.087Z,100469.95
2019-02-06T23:06:08.924Z,100466.84
2019-02-06T23:08:37.305Z,100465.95
2019-02-06T23:11:07.002Z,100469.22
2019-02-06T23:13:35.705Z,100464.88
2019-02-06T23:16:04.444Z,100460.00
2019-02-06T23:18:32.659Z,100463.98
2019-02-06T23:21:00.713Z,100455.88
2019-02-06T23:23:29.885Z,100455.30
2019-02-06T23:26:00.264Z,100459.89
2019-02-06T23:28:28.384Z,100460.25
2019-02-06T23:30:56.564Z,100449.45
2019-02-06T23:33:24.677Z,100446.87
2019-02-06T23:35:52.739Z,100441.98
2019-02-06T23:38:20.880Z,100441.16
2019-02-06T23:40:49.238Z,100442.81
2019-02-06T23:43:18.503Z,100441.63
2019-02-06T23:45:46.676Z,100440.42
2019-02-06T23:48:14.873Z,100435.94
2019-02-06T23:50:44.038Z,100438.88
2019-02-06T23:53:12.268Z,100435.00
2019-02-06T23:55:41.802Z,100441.67
2019-02-06T23:58:09.971Z,100433.53
